Time;durP1;ratioP1;P1;durP2;ratioP2;P2;SDS_P1;SDS_P2;PMS_P1;PMS_P2;Temp;Humidity;BMP_temperature;BMP_pressure;BME280_temperature;BME280_humidity;BME280_pressure;Samples;Min_cycle;Max_cycle;Signal;HPM_P1;HPM_P2
2022/05/14 00:00:25;;;;;;;8.63;3.70;;;12.50;82.00;;;;;;5079044;28;20024;-76
2022/05/14 00:02:51;;;;;;;8.70;3.55;;;12.50;82.10;;;;;;5078863;28;20050;-77
2022/05/14 00:05:21;;;;;;;10.35;3.70;;;12.50;82.00;;;;;;5078870;28;20031;-77
2022/05/14 00:07:47;;;;;;;6.05;3.28;;;12.40;83.00;;;;;;5078556;28;20020;-77
2022/05/14 00:10:15;;;;;;;12.45;4.13;;;12.40;82.40;;;;;;5078699;28;20480;-77
2022/05/14 00:15:25;;;;;;;9.52;3.80;;;12.40;82.30;;;;;;5096784;28;20078;-75
2022/05/14 00:17:51;;;;;;;8.73;3.70;;;12.30;82.50;;;;;;5078805;28;20020;-77
2022/05/14 00:20:18;;;;;;;9.73;4.20;;;12.30;82.60;;;;;;5075087;28;20052;-77
2022/05/14 00:22:43;;;;;;;9.68;3.75;;;12.30;82.50;;;;;;5075024;28;20066;-76
2022/05/14 00:25:10;;;;;;;7.18;3.42;;;12.30;82.50;;;;;;5075141;28;20024;-77
2022/05/14 00:27:41;;;;;;;6.88;3.63;;;12.30;82.70;;;;;;5075266;28;20021;-77
2022/05/14 00:30:08;;;;;;;10.65;3.65;;;12.30;82.50;;;;;;5074939;28;20032;-76
2022/05/14 00:32:33;;;;;;;6.65;3.55;;;12.20;82.40;;;;;;5074985;28;20388;-76
2022/05/14 00:34:59;;;;;;;8.52;3.72;;;12.20;82.40;;;;;;5074923;28;20033;-76
2022/05/14 00:37:24;;;;;;;8.57;3.60;;;12.20;82.60;;;;;;5074970;28;20032;-77
2022/05/14 00:39:50;;;;;;;6.35;3.30;;;12.20;82.50;;;;;;5074616;28;20028;-76
2022/05/14 00:42:16;;;;;;;7.78;3.13;;;12.10;82.60;;;;;;5074621;28;20036;-77
2022/05/14 00:44:41;;;;;;;9.18;3.38;;;12.20;82.60;;;;;;5074873;28;20031;-76
2022/05/14 00:47:14;;;;;;;10.40;3.10;;;12.20;82.30;;;;;;5074704;28;20161;-77
2022/05/14 00:49:40;;;;;;;9.73;3.30;;;12.10;82.40;;;;;;5074562;28;20039;-76
2022/05/14 00:52:13;;;;;;;6.97;3.08;;;12.20;82.10;;;;;;5074684;28;20020;-76
2022/05/14 00:54:51;;;;;;;7.78;3.53;;;12.20;81.90;;;;;;5076116;28;20139;-76
2022/05/14 00:57:21;;;;;;;9.25;3.28;;;12.30;81.90;;;;;;5074635;28;20055;-76
2022/05/14 00:59:47;;;;;;;9.40;3.28;;;12.10;82.00;;;;;;5074522;28;20083;-77
2022/05/14 01:02:12;;;;;;;7.65;3.08;;;12.00;82.50;;;;;;5074575;28;20028;-77
2022/05/14 01:04:43;;;;;;;9.98;2.83;;;12.00;82.90;;;;;;5074367;28;20495;-77
2022/05/14 01:07:13;;;;;;;9.05;3.20;;;11.90;83.00;;;;;;5074541;28;20545;-76
2022/05/14 01:09:42;;;;;;;12.75;3.40;;;11.90;83.10;;;;;;5073808;28;20024;-77
2022/05/14 01:12:09;;;;;;;7.00;3.00;;;11.90;83.10;;;;;;5074370;28;20397;-76
2022/05/14 01:14:34;;;;;;;6.65;3.17;;;11.90;83.00;;;;;;5074098;28;20033;-76
2022/05/14 01:17:00;;;;;;;8.18;3.45;;;11.90;82.60;;;;;;5074136;28;20457;-76
2022/05/14 01:19:27;;;;;;;10.18;3.63;;;11.90;82.60;;;;;;5073932;28;20041;-76
2022/05/14 01:22:05;;;;;;;9.55;3.42;;;11.90;82.80;;;;;;5074203;28;20021;-75
2022/05/14 01:27:30;;;;;;;12.45;3.42;;;11.70;83.30;;;;;;5075125;28;20023;-76
2022/05/14 01:29:55;;;;;;;5.15;3.03;;;11.70;83.50;;;;;;5073887;28;20024;-77
2022/05/14 01:32:21;;;;;;;7.68;3.10;;;11.70;83.40;;;;;;5073695;28;20078;-76
2022/05/14 01:34:46;;;;;;;5.30;2.90;;;11.70;83.20;;;;;;5073952;28;20036;-76
2022/05/14 01:37:12;;;;;;;9.55;3.65;;;11.70;83.10;;;;;;5073907;28;20055;-74
2022/05/14 01:39:38;;;;;;;4.85;2.90;;;11.70;83.00;;;;;;5073896;28;20530;-76
2022/05/14 01:42:05;;;;;;;5.25;2.90;;;11.70;83.00;;;;;;5073809;28;20051;-76
2022/05/14 01:44:31;;;;;;;9.73;2.90;;;11.70;83.00;;;;;;5073490;28;20021;-76
2022/05/14 01:46:56;;;;;;;12.15;3.40;;;11.80;82.90;;;;;;5073231;28;20021;-76
2022/05/14 01:49:22;;;;;;;9.35;3.20;;;11.70;82.80;;;;;;5073648;28;20025;-76
2022/05/14 01:51:48;;;;;;;9.45;3.03;;;11.70;82.70;;;;;;5073732;28;20028;-76
2022/05/14 01:54:13;;;;;;;8.85;3.10;;;11.70;82.70;;;;;;5073193;28;20024;-76
2022/05/14 01:56:39;;;;;;;9.57;3.17;;;11.60;82.50;;;;;;5073276;28;20020;-75
2022/05/14 01:59:05;;;;;;;9.38;3.00;;;11.70;82.40;;;;;;5073265;28;20113;-76
2022/05/14 02:01:33;;;;;;;10.77;2.95;;;11.70;82.10;;;;;;5090273;28;20020;-76
2022/05/14 02:04:03;;;;;;;6.82;2.38;;;11.80;81.90;;;;;;5073183;28;20024;-76
2022/05/14 02:06:30;;;;;;;5.97;2.35;;;11.80;81.70;;;;;;5073328;28;20369;-76
2022/05/14 02:08:56;;;;;;;8.05;2.40;;;11.80;81.30;;;;;;5073029;28;20455;-76
2022/05/14 02:11:23;;;;;;;6.47;2.60;;;11.80;81.10;;;;;;5073182;28;20021;-76
2022/05/14 02:13:50;;;;;;;10.20;2.80;;;11.80;81.50;;;;;;5072694;28;20032;-76
2022/05/14 02:16:16;;;;;;;5.78;2.65;;;11.80;81.20;;;;;;5072891;28;20029;-76
2022/05/14 02:18:43;;;;;;;10.65;2.72;;;11.60;81.40;;;;;;5072997;28;20538;-75
2022/05/14 02:21:10;;;;;;;6.38;2.17;;;11.60;81.80;;;;;;5072939;28;20102;-75
2022/05/14 02:23:38;;;;;;;8.60;2.90;;;11.60;82.00;;;;;;5072966;28;20020;-75
2022/05/14 02:26:05;;;;;;;9.00;2.60;;;11.60;82.00;;;;;;5072558;28;20112;-75
2022/05/14 02:28:31;;;;;;;10.52;3.03;;;11.50;82.20;;;;;;5072353;28;20082;-76
2022/05/14 02:30:57;;;;;;;7.38;2.50;;;11.50;82.50;;;;;;5072878;28;20020;-75
2022/05/14 02:33:23;;;;;;;5.03;2.45;;;11.50;83.70;;;;;;5072626;28;20380;-76
2022/05/14 02:35:48;;;;;;;3.75;2.40;;;11.60;82.80;;;;;;5072682;28;20056;-75
2022/05/14 02:38:15;;;;;;;5.35;2.70;;;11.60;82.90;;;;;;5072724;28;20182;-76
2022/05/14 02:40:42;;;;;;;5.65;2.72;;;11.70;82.90;;;;;;5072237;28;20020;-76
2022/05/14 02:43:07;;;;;;;4.10;2.38;;;11.80;82.80;;;;;;5072318;28;20511;-76
2022/05/14 02:45:33;;;;;;;8.18;2.63;;;11.90;82.40;;;;;;5072085;28;20027;-76
2022/05/14 02:47:59;;;;;;;3.45;1.98;;;11.90;82.20;;;;;;5072424;28;20060;-75
2022/05/14 02:50:24;;;;;;;10.45;2.30;;;12.00;81.00;;;;;;5072270;28;20088;-75
2022/05/14 02:52:51;;;;;;;3.75;2.17;;;12.00;80.60;;;;;;5072276;28;20094;-75
2022/05/14 02:55:16;;;;;;;9.05;3.00;;;12.00;80.20;;;;;;5072102;28;20036;-75
2022/05/14 02:57:42;;;;;;;4.53;1.90;;;11.90;80.20;;;;;;5071843;28;20021;-74
2022/05/14 03:00:12;;;;;;;4.78;1.85;;;11.90;80.30;;;;;;5072006;28;20028;-75
2022/05/14 03:02:38;;;;;;;8.90;2.13;;;11.90;80.20;;;;;;5072147;28;20503;-74
2022/05/14 03:05:04;;;;;;;5.25;2.08;;;11.90;80.20;;;;;;5072195;28;20028;-74
2022/05/14 03:07:30;;;;;;;4.88;2.00;;;11.90;80.30;;;;;;5071950;28;20358;-75
2022/05/14 03:09:56;;;;;;;8.82;2.22;;;12.00;80.10;;;;;;5072041;28;20017;-74
2022/05/14 03:12:22;;;;;;;7.05;2.50;;;12.00;80.00;;;;;;5072161;28;20024;-75
2022/05/14 03:14:49;;;;;;;10.45;2.30;;;11.90;80.00;;;;;;5071757;28;20040;-74
2022/05/14 03:17:15;;;;;;;6.80;2.20;;;11.90;80.00;;;;;;5071822;28;20070;-74
2022/05/14 03:19:41;;;;;;;7.25;2.20;;;11.90;80.40;;;;;;5070979;28;20473;-74
2022/05/14 03:22:08;;;;;;;6.60;2.17;;;11.80;80.30;;;;;;5071718;28;20025;-74
2022/05/14 03:24:36;;;;;;;8.20;2.13;;;11.90;80.10;;;;;;5071531;28;20028;-74
2022/05/14 03:27:02;;;;;;;8.57;2.22;;;11.90;79.90;;;;;;5071650;28;20025;-74
2022/05/14 03:29:28;;;;;;;5.38;2.00;;;11.90;80.00;;;;;;5071945;28;20029;-74
2022/05/14 03:31:56;;;;;;;5.65;2.55;;;11.90;80.20;;;;;;5071999;28;20060;-74
2022/05/14 03:34:22;;;;;;;7.72;2.13;;;11.80;80.40;;;;;;5071776;28;20060;-74
2022/05/14 03:36:48;;;;;;;5.57;2.28;;;11.70;80.60;;;;;;5071324;28;20056;-75
2022/05/14 03:39:14;;;;;;;5.88;2.30;;;11.70;81.00;;;;;;5071575;28;20016;-75
2022/05/14 03:41:41;;;;;;;7.40;2.80;;;11.60;81.30;;;;;;5071485;28;20025;-75
2022/05/14 03:44:07;;;;;;;6.63;1.98;;;11.60;81.60;;;;;;5071760;28;20473;-74
2022/05/14 03:46:32;;;;;;;7.05;2.00;;;11.60;81.80;;;;;;5071710;28;20024;-75
2022/05/14 03:48:58;;;;;;;6.55;2.60;;;11.60;81.70;;;;;;5071208;28;20484;-75
2022/05/14 03:51:24;;;;;;;4.90;1.98;;;11.60;81.60;;;;;;5071293;28;20473;-75
2022/05/14 03:53:49;;;;;;;6.85;2.30;;;11.50;81.60;;;;;;5071386;28;20052;-74
2022/05/14 03:56:15;;;;;;;6.30;2.30;;;11.50;81.80;;;;;;5071221;28;20037;-74
2022/05/14 03:58:41;;;;;;;7.68;2.45;;;11.60;81.60;;;;;;5071648;28;20032;-74
2022/05/14 04:01:06;;;;;;;9.27;2.25;;;11.50;81.40;;;;;;5071535;28;20020;-75
2022/05/14 04:03:34;;;;;;;5.43;2.47;;;11.50;81.30;;;;;;5071483;28;20029;-74
2022/05/14 04:06:01;;;;;;;16.25;2.92;;;11.50;81.40;;;;;;5071396;28;20048;-75
2022/05/14 04:08:27;;;;;;;3.55;2.58;;;11.50;81.30;;;;;;5071065;28;20059;-74
2022/05/14 04:10:52;;;;;;;6.78;2.70;;;11.40;81.70;;;;;;5071217;28;20111;-74
2022/05/14 04:13:18;;;;;;;9.45;2.75;;;11.30;82.20;;;;;;5071509;28;20116;-74
2022/05/14 04:15:44;;;;;;;8.60;2.53;;;11.30;82.40;;;;;;5071367;28;20035;-74
2022/05/14 04:18:10;;;;;;;9.63;2.97;;;11.30;82.20;;;;;;5071346;28;20146;-75
2022/05/14 04:20:36;;;;;;;8.43;2.70;;;11.30;82.20;;;;;;5070990;28;20053;-74
2022/05/14 04:23:02;;;;;;;6.68;2.90;;;11.30;82.20;;;;;;5071196;28;20115;-74
2022/05/14 04:25:28;;;;;;;13.52;2.78;;;11.30;82.10;;;;;;5070992;28;20025;-74
2022/05/14 04:27:54;;;;;;;4.70;2.40;;;11.30;82.10;;;;;;5071456;28;20082;-74
2022/05/14 04:30:20;;;;;;;8.50;2.33;;;11.20;82.10;;;;;;5072326;28;20024;-74
2022/05/14 04:32:45;;;;;;;11.80;2.65;;;11.20;82.00;;;;;;5077495;28;20042;-74
2022/05/14 04:35:14;;;;;;;6.10;1.95;;;11.20;81.80;;;;;;5074825;28;20032;-74
2022/05/14 04:37:39;;;;;;;9.48;2.38;;;11.20;82.00;;;;;;5074751;28;20112;-74
2022/05/14 04:40:07;;;;;;;9.75;2.10;;;11.00;82.00;;;;;;5074403;28;20115;-74
2022/05/14 04:42:33;;;;;;;5.57;2.00;;;11.10;82.00;;;;;;5074892;28;20078;-74
2022/05/14 04:44:58;;;;;;;11.35;2.67;;;11.30;81.60;;;;;;5074684;28;20028;-74
2022/05/14 04:47:24;;;;;;;5.38;2.45;;;11.30;81.10;;;;;;5074660;28;20612;-75
2022/05/14 04:49:50;;;;;;;9.20;2.30;;;11.40;80.70;;;;;;5074648;28;20082;-75
2022/05/14 04:52:16;;;;;;;9.65;2.85;;;11.50;80.40;;;;;;5074447;28;20031;-74
2022/05/14 04:54:42;;;;;;;7.88;2.80;;;11.60;79.70;;;;;;5074628;28;20028;-73
2022/05/14 04:57:08;;;;;;;7.47;2.90;;;11.60;79.50;;;;;;5074550;28;20024;-74
2022/05/14 04:59:36;;;;;;;7.40;2.67;;;11.70;79.00;;;;;;5074076;28;20066;-74
2022/05/14 05:04:47;;;;;;;4.60;2.00;;;11.80;78.40;;;;;;5075789;28;20086;-74
2022/05/14 05:07:12;;;;;;;5.35;1.88;;;11.90;78.10;;;;;;5074080;28;20469;-75
2022/05/14 05:09:38;;;;;;;7.55;2.25;;;12.10;77.70;;;;;;5074445;28;20025;-74
2022/05/14 05:12:04;;;;;;;5.00;2.20;;;12.10;77.40;;;;;;5074260;28;20021;-74
2022/05/14 05:14:30;;;;;;;6.28;1.90;;;12.10;77.50;;;;;;5073984;28;20397;-75
2022/05/14 05:16:57;;;;;;;4.15;1.90;;;12.10;77.40;;;;;;5074065;28;20029;-77
2022/05/14 05:19:23;;;;;;;9.48;2.60;;;12.20;77.30;;;;;;5076802;28;20044;-77
2022/05/14 05:21:49;;;;;;;4.50;1.85;;;12.30;77.90;;;;;;5077485;28;20034;-77
2022/05/14 05:24:15;;;;;;;9.95;2.35;;;12.30;77.20;;;;;;5077164;28;20484;-77
2022/05/14 05:26:41;;;;;;;7.28;1.95;;;12.30;76.80;;;;;;5076944;28;20115;-76
2022/05/14 05:29:07;;;;;;;3.95;1.88;;;12.40;76.40;;;;;;5077228;28;20124;-78
2022/05/14 05:31:34;;;;;;;6.68;2.60;;;12.40;76.00;;;;;;5077166;28;20024;-78
2022/05/14 05:34:01;;;;;;;4.60;2.13;;;12.40;76.10;;;;;;5076855;28;20024;-77
2022/05/14 05:36:26;;;;;;;4.00;1.95;;;12.50;75.50;;;;;;5076825;28;20031;-77
2022/05/14 05:38:52;;;;;;;4.60;2.25;;;12.50;75.10;;;;;;5094974;28;20028;-77
2022/05/14 05:41:19;;;;;;;4.85;1.88;;;12.60;75.20;;;;;;5076680;28;20432;-76
2022/05/14 05:43:46;;;;;;;5.63;1.65;;;12.60;74.60;;;;;;5094123;28;20480;-77
2022/05/14 05:46:12;;;;;;;9.00;2.25;;;12.70;74.40;;;;;;5076450;28;20475;-77
2022/05/14 05:48:38;;;;;;;2.45;1.42;;;12.70;74.20;;;;;;5076751;28;20028;-77
2022/05/14 05:51:04;;;;;;;6.60;2.20;;;12.90;74.10;;;;;;5076645;28;20026;-76
2022/05/14 05:58:58;;;;;;;5.47;1.95;;;13.20;73.00;;;;;;5094737;28;20430;-76
2022/05/14 06:01:24;;;;;;;7.40;1.75;;;13.30;72.20;;;;;;5076535;28;20020;-77
2022/05/14 06:03:51;;;;;;;6.93;1.67;;;13.50;72.20;;;;;;5076671;28;20442;-76
2022/05/14 06:06:17;;;;;;;6.05;1.60;;;13.60;71.70;;;;;;5076259;28;20028;-76
2022/05/14 06:08:43;;;;;;;3.78;1.77;;;13.70;71.40;;;;;;5076281;28;20028;-75
2022/05/14 06:11:09;;;;;;;6.68;1.50;;;13.80;70.90;;;;;;5076457;28;20541;-76
2022/05/14 06:13:34;;;;;;;3.83;1.50;;;13.90;71.40;;;;;;5094644;28;20059;-76
2022/05/14 06:16:00;;;;;;;5.97;1.30;;;14.10;70.20;;;;;;5076173;28;20040;-76
2022/05/14 06:18:26;;;;;;;4.15;1.38;;;14.30;69.50;;;;;;5076193;28;20016;-76
2022/05/14 06:20:52;;;;;;;7.38;1.65;;;14.50;69.10;;;;;;5075953;28;20052;-75
2022/05/14 06:23:18;;;;;;;5.10;1.45;;;14.60;66.90;;;;;;5076105;28;20026;-75
2022/05/14 06:25:44;;;;;;;3.72;1.38;;;14.70;66.30;;;;;;5075791;28;20024;-75
2022/05/14 06:28:10;;;;;;;5.55;1.40;;;14.90;65.50;;;;;;5093645;28;20012;-76
2022/05/14 06:30:41;;;;;;;5.07;1.30;;;15.00;65.00;;;;;;5093509;28;20023;-76
2022/05/14 06:33:07;;;;;;;4.93;1.10;;;15.20;65.00;;;;;;5059824;28;20031;-75
2022/05/14 06:35:35;;;;;;;9.88;1.77;;;15.30;64.60;;;;;;5075684;28;20467;-76
2022/05/14 06:38:01;;;;;;;4.88;1.65;;;15.40;63.80;;;;;;5075683;28;20386;-77
2022/05/14 06:40:28;;;;;;;5.15;1.15;;;15.50;64.10;;;;;;5093228;28;20339;-76
2022/05/14 06:42:53;;;;;;;4.85;1.45;;;15.60;64.00;;;;;;5093558;28;20119;-76
2022/05/14 06:45:19;;;;;;;6.50;1.45;;;15.70;64.10;;;;;;5095693;28;20074;-76
2022/05/14 06:47:45;;;;;;;6.80;1.65;;;15.80;64.80;;;;;;5095746;28;20023;-77
2022/05/14 06:50:11;;;;;;;5.45;1.88;;;15.90;68.90;;;;;;5113956;28;20027;-77
2022/05/14 06:52:40;;;;;;;3.45;1.73;;;15.80;69.60;;;;;;5113750;28;20024;-76
2022/05/14 06:55:08;;;;;;;5.80;1.90;;;15.70;69.70;;;;;;5095337;28;20031;-77
2022/05/14 06:57:35;;;;;;;5.53;1.80;;;15.90;69.20;;;;;;5078538;28;20039;-77
2022/05/14 07:00:03;;;;;;;7.20;1.90;;;16.00;68.40;;;;;;5095494;28;20024;-76
2022/05/14 07:02:29;;;;;;;4.90;1.73;;;16.00;68.30;;;;;;5095224;28;20019;-76
2022/05/14 07:07:39;;;;;;;8.55;1.88;;;16.10;66.50;;;;;;5113856;28;20038;-75
2022/05/14 07:10:05;;;;;;;5.45;1.67;;;16.00;67.90;;;;;;5079106;28;20031;-74
2022/05/14 07:12:32;;;;;;;6.75;2.10;;;16.10;67.20;;;;;;5096921;28;20028;-77
2022/05/14 07:14:58;;;;;;;12.20;1.98;;;16.30;66.60;;;;;;5095334;28;20505;-76
2022/05/14 07:17:25;;;;;;;10.63;1.75;;;16.40;64.90;;;;;;5113791;28;20028;-76
2022/05/14 07:19:51;;;;;;;5.72;1.90;;;16.60;66.00;;;;;;5113102;28;20042;-76
2022/05/14 07:22:17;;;;;;;6.85;1.70;;;17.00;71.40;;;;;;5094659;28;20020;-76
2022/05/14 07:24:45;;;;;;;5.78;1.73;;;17.40;65.30;;;;;;5113297;28;20019;-73
2022/05/14 07:27:11;;;;;;;6.00;1.42;;;17.70;65.20;;;;;;5095152;28;20478;-73
2022/05/14 07:29:40;;;;;;;6.55;1.10;;;18.00;62.20;;;;;;5113107;28;20055;-76
2022/05/14 07:32:10;;;;;;;4.07;1.20;;;18.20;58.50;;;;;;5095128;28;20023;-74
2022/05/14 07:34:38;;;;;;;4.43;1.70;;;18.40;58.60;;;;;;5113128;28;20023;-73
2022/05/14 07:37:13;;;;;;;5.25;1.48;;;18.70;57.30;;;;;;5112977;28;20035;-72
2022/05/14 07:39:47;;;;;;;4.20;1.20;;;18.90;57.30;;;;;;5094820;28;20059;-72
2022/05/14 07:42:18;;;;;;;4.75;1.60;;;19.00;56.40;;;;;;5113064;28;20085;-73
2022/05/14 07:44:48;;;;;;;4.65;1.25;;;19.20;55.70;;;;;;5113171;28;20027;-73
2022/05/14 07:47:14;;;;;;;7.00;2.25;;;19.40;55.00;;;;;;5094777;28;20031;-73
2022/05/14 07:49:43;;;;;;;6.13;2.15;;;19.70;54.10;;;;;;5094890;28;20032;-74
2022/05/14 07:52:13;;;;;;;5.35;1.48;;;19.80;53.20;;;;;;5095051;28;20027;-77
2022/05/14 07:54:39;;;;;;;2.47;0.98;;;20.00;50.80;;;;;;5095162;28;20112;-77
2022/05/14 07:57:06;;;;;;;3.90;1.10;;;20.10;49.90;;;;;;5112926;28;20480;-76
2022/05/14 07:59:33;;;;;;;3.47;1.23;;;20.20;47.80;;;;;;5094817;28;20020;-73
2022/05/14 08:01:59;;;;;;;6.13;1.33;;;20.10;46.20;;;;;;5094628;28;20153;-75
2022/05/14 08:04:24;;;;;;;4.00;1.02;;;19.90;43.50;;;;;;5112928;28;20531;-73
2022/05/14 08:06:50;;;;;;;9.57;1.25;;;19.90;46.70;;;;;;5116573;28;20149;-73
2022/05/14 08:09:15;;;;;;;3.70;1.40;;;20.00;46.50;;;;;;5098650;28;20467;-77
2022/05/14 08:11:41;;;;;;;5.35;1.58;;;20.00;45.60;;;;;;5116685;28;20032;-76
2022/05/14 08:14:06;;;;;;;3.90;1.08;;;19.70;44.60;;;;;;5116280;28;20468;-74
2022/05/14 08:16:32;;;;;;;5.47;1.13;;;19.80;45.80;;;;;;5116173;28;20062;-74
2022/05/14 08:19:01;;;;;;;9.13;1.25;;;19.80;44.70;;;;;;5116467;28;20072;-76
2022/05/14 08:26:54;;;;;;;3.03;1.00;;;19.60;43.50;;;;;;5116639;28;20108;-75
2022/05/14 08:29:21;;;;;;;3.05;1.42;;;19.60;45.80;;;;;;5116273;28;20055;-75
2022/05/14 08:31:48;;;;;;;5.72;1.30;;;19.80;45.90;;;;;;5116154;28;20047;-75
2022/05/14 08:34:14;;;;;;;7.20;1.10;;;19.90;44.90;;;;;;5098105;28;20024;-76
2022/05/14 08:36:40;;;;;;;3.95;1.33;;;20.10;44.50;;;;;;5116058;28;20118;-75
2022/05/14 08:39:07;;;;;;;4.10;1.08;;;20.10;44.40;;;;;;5115931;28;20383;-77
2022/05/14 08:41:38;;;;;;;6.90;1.85;;;20.10;45.00;;;;;;5097863;28;20023;-77
2022/05/14 08:44:12;;;;;;;2.72;1.20;;;20.20;45.10;;;;;;5097957;28;20547;-75
2022/05/14 08:46:43;;;;;;;5.38;1.50;;;20.40;44.90;;;;;;5116402;28;20031;-75
2022/05/14 08:49:18;;;;;;;4.10;1.63;;;20.60;44.50;;;;;;5097890;28;20027;-76
2022/05/14 08:51:48;;;;;;;4.07;1.50;;;20.70;44.50;;;;;;5097569;28;20020;-75
2022/05/14 08:54:14;;;;;;;7.85;1.75;;;20.70;43.00;;;;;;5097640;28;20020;-75
2022/05/14 08:56:46;;;;;;;5.00;1.20;;;20.30;42.20;;;;;;5098174;28;20050;-75
2022/05/14 08:59:36;;;;;;;8.95;1.98;;;20.40;44.90;;;;;;5115851;28;20468;-75
2022/05/14 09:02:17;;;;;;;4.65;1.35;;;20.20;43.70;;;;;;5097600;28;20126;-75
2022/05/14 09:04:44;;;;;;;5.07;1.65;;;20.10;46.40;;;;;;5092611;28;20028;-75
2022/05/14 09:07:10;;;;;;;4.35;1.50;;;20.30;45.80;;;;;;5100328;28;20464;-75
2022/05/14 09:09:47;;;;;;;5.60;1.48;;;20.70;45.50;;;;;;5100213;28;20111;-74
2022/05/14 09:12:17;;;;;;;2.90;1.25;;;21.00;44.80;;;;;;5088961;28;20020;-75
2022/05/14 09:14:44;;;;;;;7.25;3.05;;;21.20;44.00;;;;;;5097321;28;20059;-73
2022/05/14 09:17:14;;;;;;;6.30;1.88;;;21.40;44.40;;;;;;5095897;28;20357;-73
2022/05/14 09:19:43;;;;;;;5.32;2.08;;;21.60;44.10;;;;;;5115151;28;20484;-76
2022/05/14 09:22:22;;;;;;;6.70;2.08;;;21.60;44.50;;;;;;5115278;28;20034;-76
2022/05/14 09:25:13;;;;;;;7.10;2.67;;;21.60;45.00;;;;;;5115396;28;20503;-76
2022/05/14 09:27:51;;;;;;;5.82;2.30;;;21.40;44.70;;;;;;5092354;28;20023;-76
2022/05/14 09:30:29;;;;;;;4.72;1.70;;;21.20;44.90;;;;;;5097526;28;20020;-76
2022/05/14 09:32:55;;;;;;;9.75;2.70;;;21.40;44.30;;;;;;5097127;28;20081;-76
2022/05/14 09:35:29;;;;;;;8.25;2.10;;;21.40;44.60;;;;;;5115141;28;20040;-76
2022/05/14 09:38:21;;;;;;;6.65;2.50;;;21.40;41.90;;;;;;5115314;28;20080;-76
2022/05/14 09:40:47;;;;;;;7.68;2.30;;;21.20;42.70;;;;;;5096745;28;20118;-75
2022/05/14 09:43:29;;;;;;;4.68;2.50;;;21.10;43.50;;;;;;5114569;28;20074;-76
2022/05/14 09:46:23;;;;;;;9.40;2.60;;;21.10;44.20;;;;;;5096579;28;20031;-75
2022/05/14 09:48:54;;;;;;;7.57;2.33;;;21.20;46.30;;;;;;5096552;28;20034;-76
2022/05/14 09:51:40;;;;;;;7.35;2.30;;;21.50;43.10;;;;;;5096540;28;20020;-76
2022/05/14 09:54:10;;;;;;;;;;;21.60;43.50;;;;;;5095883;28;20036;-76
2022/05/14 09:56:47;;;;;;;4.93;1.88;;;21.80;43.50;;;;;;5095891;28;19915;-77
2022/05/14 09:59:33;;;;;;;4.18;1.92;;;21.90;39.30;;;;;;5093120;28;20058;-76
2022/05/14 10:02:07;;;;;;;3.97;1.63;;;21.90;38.00;;;;;;5086122;28;20034;-77
2022/05/14 10:04:51;;;;;;;5.35;2.10;;;21.70;38.20;;;;;;5096243;28;20649;-75
2022/05/14 10:07:37;;;;;;;6.85;2.35;;;21.80;38.90;;;;;;5092579;28;20388;-76
2022/05/14 10:10:37;;;;;;;4.22;2.15;;;21.80;38.90;;;;;;5086417;28;20472;-76
2022/05/14 10:13:10;;;;;;;9.18;2.15;;;22.00;38.60;;;;;;5096271;28;20020;-75
2022/05/14 10:15:41;;;;;;;7.03;2.15;;;22.10;38.10;;;;;;5096284;28;20059;-76
2022/05/14 10:18:54;;;;;;;10.27;2.17;;;21.90;38.50;;;;;;5095734;28;20112;-76
2022/05/14 10:21:28;;;;;;;5.80;1.98;;;21.60;38.80;;;;;;5011561;28;20050;-75
2022/05/14 10:26:49;;;;;;;4.50;1.95;;;22.00;38.00;;;;;;5083103;28;20085;-75
2022/05/14 10:29:14;;;;;;;6.63;2.63;;;22.30;38.40;;;;;;5092559;28;20360;-75
2022/05/14 10:31:55;;;;;;;5.25;1.95;;;22.40;36.50;;;;;;5082788;28;20107;-76
2022/05/14 10:34:36;;;;;;;6.53;2.05;;;22.40;36.80;;;;;;5095828;28;20020;-76
2022/05/14 10:37:19;;;;;;;4.50;1.95;;;22.60;37.20;;;;;;5095881;28;20491;-75
2022/05/14 10:39:58;;;;;;;7.50;2.15;;;22.50;37.30;;;;;;5095688;28;20062;-75
2022/05/14 10:42:39;;;;;;;4.28;1.58;;;22.60;39.20;;;;;;5095748;28;20028;-75
2022/05/14 10:45:17;;;;;;;5.15;1.70;;;22.90;38.40;;;;;;5096148;28;20114;-76
2022/05/14 10:47:52;;;;;;;5.38;2.00;;;23.20;36.40;;;;;;5095640;28;20718;-76
2022/05/14 10:50:20;;;;;;;5.07;1.80;;;23.50;36.10;;;;;;5095639;28;20443;-75
2022/05/14 10:52:48;;;;;;;7.63;2.40;;;23.60;36.20;;;;;;5095751;28;20119;-76
2022/05/14 10:55:21;;;;;;;6.38;2.30;;;23.70;36.10;;;;;;5095241;28;20032;-76
2022/05/14 10:57:55;;;;;;;3.42;1.80;;;23.80;35.60;;;;;;5095547;28;20111;-75
2022/05/14 11:00:31;;;;;;;6.65;2.15;;;24.10;35.40;;;;;;5112496;28;20019;-76
2022/05/14 11:03:00;;;;;;;3.63;1.58;;;24.10;34.30;;;;;;5095411;28;20451;-76
2022/05/14 11:05:35;;;;;;;7.60;2.10;;;24.10;35.20;;;;;;5095186;28;20031;-76
2022/05/14 11:08:26;;;;;;;4.18;2.03;;;24.00;34.80;;;;;;5100426;28;20044;-75
2022/05/14 11:11:03;;;;;;;4.10;2.22;;;23.40;34.30;;;;;;5096085;28;20027;-75
2022/05/14 11:13:29;;;;;;;5.05;1.95;;;23.40;34.70;;;;;;5095492;28;20388;-75
2022/05/14 11:16:06;;;;;;;6.13;1.65;;;23.40;34.50;;;;;;5095633;28;20416;-75
2022/05/14 11:18:51;;;;;;;4.75;2.05;;;23.40;34.20;;;;;;5095051;28;20019;-75
2022/05/14 11:21:18;;;;;;;5.82;1.60;;;23.50;34.30;;;;;;5094973;28;20059;-75
2022/05/14 11:23:55;;;;;;;5.70;1.52;;;23.80;34.70;;;;;;5095046;28;20058;-76
2022/05/14 11:26:21;;;;;;;7.50;2.28;;;24.10;34.90;;;;;;5095028;28;20481;-76
2022/05/14 11:29:10;;;;;;;12.10;2.20;;;23.70;34.20;;;;;;5095177;28;20031;-76
2022/05/14 11:31:40;;;;;;;4.75;1.70;;;23.70;34.60;;;;;;5095195;28;20087;-77
2022/05/14 11:34:20;;;;;;;6.32;1.85;;;23.80;34.20;;;;;;5094791;28;20036;-75
2022/05/14 11:36:52;;;;;;;5.40;1.73;;;24.00;33.50;;;;;;5079109;28;20040;-75
2022/05/14 11:39:26;;;;;;;4.68;1.85;;;24.20;33.80;;;;;;5094915;28;20471;-77
2022/05/14 11:42:07;;;;;;;7.35;2.20;;;24.50;32.30;;;;;;5112939;28;20074;-75
2022/05/14 11:44:38;;;;;;;5.15;2.15;;;24.30;33.40;;;;;;5094728;28;20031;-75
2022/05/14 11:47:21;;;;;;;5.20;2.08;;;24.40;32.30;;;;;;5094672;28;20016;-75
2022/05/14 11:49:48;;;;;;;4.07;1.67;;;24.30;32.40;;;;;;5094843;28;20028;-75
2022/05/14 11:52:24;;;;;;;4.43;1.92;;;24.40;31.80;;;;;;5094959;28;20563;-75
2022/05/14 11:55:15;;;;;;;4.50;2.10;;;24.70;31.60;;;;;;5094630;28;20185;-76
2022/05/14 11:58:01;;;;;;;3.03;1.63;;;24.90;32.60;;;;;;5094904;28;20472;-76
2022/05/14 12:00:29;;;;;;;;;;;24.90;31.50;;;;;;5095304;28;20062;-75
2022/05/14 12:03:11;;;;;;;4.35;1.88;;;24.60;30.80;;;;;;5094519;28;19926;-76
2022/05/14 12:06:25;;;;;;;2.65;1.30;;;24.50;30.70;;;;;;5094728;28;20475;-76
2022/05/14 12:09:07;;;;;;;4.68;1.60;;;25.00;32.90;;;;;;5068692;28;20028;-76
2022/05/14 12:11:45;;;;;;;8.40;1.88;;;25.30;30.50;;;;;;5094540;28;20031;-76
2022/05/14 12:14:17;;;;;;;3.90;1.73;;;25.60;29.90;;;;;;5094779;28;20111;-76
2022/05/14 12:16:55;;;;;;;3.88;1.48;;;25.60;28.40;;;;;;5095010;28;20392;-76
2022/05/14 12:19:24;;;;;;;2.55;1.35;;;25.60;26.70;;;;;;5092099;28;20043;-76
2022/05/14 12:21:56;;;;;;;2.95;1.50;;;25.70;28.40;;;;;;5074435;28;20031;-76
2022/05/14 12:24:25;;;;;;;4.38;1.52;;;26.00;28.60;;;;;;5074454;28;20025;-76
2022/05/14 12:26:50;;;;;;;4.28;1.30;;;26.40;27.10;;;;;;5074538;28;20078;-76
2022/05/14 12:29:23;;;;;;;5.32;1.70;;;26.50;26.80;;;;;;5074591;28;20060;-76
2022/05/14 12:34:45;;;;;;;3.85;1.40;;;26.20;26.20;;;;;;5092194;28;20514;-77
2022/05/14 12:37:19;;;;;;;3.38;1.50;;;26.10;27.00;;;;;;5074165;28;20445;-76
2022/05/14 12:39:47;;;;;;;5.47;1.58;;;25.90;25.40;;;;;;5074084;28;20047;-76
2022/05/14 12:42:13;;;;;;;4.32;1.50;;;25.90;25.80;;;;;;5074097;28;20444;-76
2022/05/14 12:44:45;;;;;;;5.88;1.60;;;26.00;25.70;;;;;;5073807;28;20137;-77
2022/05/14 12:47:25;;;;;;;5.95;1.65;;;26.00;27.10;;;;;;5073929;28;20119;-76
2022/05/14 12:49:51;;;;;;;4.18;1.35;;;26.30;25.00;;;;;;5073789;28;20169;-76
2022/05/14 12:52:20;;;;;;;7.55;1.33;;;26.40;23.50;;;;;;5076222;28;20065;-76
2022/05/14 12:55:12;;;;;;;4.85;1.30;;;26.60;23.60;;;;;;5077493;28;20092;-76
2022/05/14 12:57:39;;;;;;;4.00;1.10;;;26.50;21.80;;;;;;5076997;28;20110;-76
2022/05/14 13:00:08;;;;;;;4.32;1.17;;;26.20;21.40;;;;;;5077505;28;20131;-76
2022/05/14 13:02:45;;;;;;;2.47;1.23;;;26.10;21.20;;;;;;5060634;28;20058;-76
2022/05/14 13:05:21;;;;;;;4.43;1.13;;;26.40;20.50;;;;;;5077425;28;20035;-76
2022/05/14 13:07:56;;;;;;;5.40;1.65;;;26.20;21.90;;;;;;5077717;28;20039;-77
2022/05/14 13:10:24;;;;;;;;;;;26.30;21.50;;;;;;5077780;28;20024;-77
2022/05/14 13:12:58;;;;;;;1.85;0.95;;;25.90;19.20;;;;;;5078065;28;20045;-76
2022/05/14 13:15:37;;;;;;;2.28;1.13;;;25.50;19.70;;;;;;5076987;28;20058;-77
2022/05/14 13:18:33;;;;;;;2.88;1.52;;;25.40;22.80;;;;;;5077276;28;20027;-77
2022/05/14 13:21:04;;;;;;;3.38;1.80;;;25.80;20.70;;;;;;5074642;28;20047;-77
2022/05/14 13:23:31;;;;;;;4.13;1.35;;;26.30;21.10;;;;;;5077192;28;20111;-77
2022/05/14 13:26:03;;;;;;;5.03;1.65;;;26.60;20.80;;;;;;5077039;28;20020;-77
2022/05/14 13:28:35;;;;;;;2.45;1.40;;;27.10;22.30;;;;;;5077331;28;20452;-76